Мир виртуальной авиации

Полеты на авиасимуляторах
...

Аэропорт LXGB

  METAR И TAF ИНФОРМАЦИЯ
METAR FOR LXGB
ADDS - METARS form results

(1629 UTC 18 August 2022)
Data provider http://aviationweather.gov/metar/data/
 
METAR text: LXGB 181620Z 07008KT CAVOK 23/17 Q1013 NOSIG RMK BLU BLU
Conditions at: LXGB (GIBRALTAR (CIV/M, GI) observed 1620 UTC 18 August 2022
Temperature: 23.0°C (73°F)
Dewpoint: 17.0°C (63°F) [RH = 69%]
Pressure (altimeter): 29.91 inches Hg (1013.0 mb)
Winds: from the ENE (70 degrees) at 9 MPH (8 knots; 4.1 m/s)
Visibility: 6 or more miles (10+ km)
Ceiling: ceiling and visibility are OK
Clouds: unknown
Weather: no significant weather observed at this time

METAR text: LXGB 181550Z 05007KT 9999 FEW035 23/16 Q1013 NOSIG RMK BLU BLU
Conditions at: LXGB (GIBRALTAR (CIV/M, GI) observed 1550 UTC 18 August 2022
Temperature: 23.0°C (73°F)
Dewpoint: 16.0°C (61°F) [RH = 65%]
Pressure (altimeter): 29.91 inches Hg (1013.0 mb)
Winds: from the NE (50 degrees) at 8 MPH (7 knots; 3.6 m/s)
Visibility: 6 or more miles (10+ km)
Ceiling: at least 12,000 feet AGL
Clouds: few clouds at 3500 feet AGL
Weather: no significant weather observed at this time

Forecast for: LXGB (GIBRALTAR (CIV/M, GI)
Text: TAF LXGB 181336Z 1815/1822 15008KT CAVOK
Forecast period: 1500 to 2200 UTC 18 August 2022
Forecast type: FROM: standard forecast or significant change
Winds: from the SSE (150 degrees) at 9 MPH (8 knots; 4.1 m/s)
Visibility: 6 or more miles (10+ km)
Ceiling: unknown
Clouds: missing
Weather: NSW  (no significant weather)
Text: PROB40
Forecast period: 1500 to 1700 UTC 18 August 2022
Forecast type: TEMPORARY: The following changes expected for less than half the time period
Winds: from the S (190 degrees) at 14 MPH (12 knots; 6.2 m/s)
Visibility: missing
Ceiling: unknown
Clouds: missing
Weather: no significant weather forecast for this period
Text: TEMPO 1815/1817 19012KT 520002
Forecast period: 1900 to 2200 UTC 18 August 2022
Forecast type: PROBABLE: 30 percent likelihood of the following during this time
Visibility: 4 miles (7 km)
Ceiling: unknown
Clouds: missing
Weather: HZ  (haze)

  КАРТА АЭРОПОРТ
  ИНФОРМАЦИЯ О ВПП
ВПП 09 Длина ВПП 6000 ft Ширина ВПП 150 ft
Высота ВПП 10 ft Порог смещения ВПП 302 ft Курс ВПП 88
ВПП 27 Длина ВПП 6000 ft Ширина ВПП 150 ft
Высота ВПП 11 ft Порог смещения ВПП 368 ft Курс ВПП 268
  ЧАСТОТА АЭРОПОРТА
Тип A/D Название APP Частота 122.8 MHZ
Тип OPS Название GIB TALKDO Частота 130.4 MHZ
Тип TWR Название TWR Частота 131.2 MHZ
  НАВИГАЦИОННЫЕ СРЕДСТВА AIDS
Тип TACAN Название Gibraltar Частота 113600 KHZ